sensor_id;sensor_type;location;lat;lon;timestamp;temperature;humidity
13093;DHT22;6612;49.568;11.000;2022-09-03T00:00:17;18.10;40.60
13093;DHT22;6612;49.568;11.000;2022-09-03T00:02:49;18.00;40.00
13093;DHT22;6612;49.568;11.000;2022-09-03T00:05:21;18.00;40.30
13093;DHT22;6612;49.568;11.000;2022-09-03T00:07:56;17.90;40.30
13093;DHT22;6612;49.568;11.000;2022-09-03T00:10:31;17.90;40.50
13093;DHT22;6612;49.568;11.000;2022-09-03T00:13:04;17.90;40.40
13093;DHT22;6612;49.568;11.000;2022-09-03T00:15:33;17.80;40.50
13093;DHT22;6612;49.568;11.000;2022-09-03T00:18:05;17.80;40.50
13093;DHT22;6612;49.568;11.000;2022-09-03T00:20:37;17.70;40.80
13093;DHT22;6612;49.568;11.000;2022-09-03T00:23:07;17.70;40.90
13093;DHT22;6612;49.568;11.000;2022-09-03T00:25:39;17.60;40.90
13093;DHT22;6612;49.568;11.000;2022-09-03T00:28:13;17.60;41.60
13093;DHT22;6612;49.568;11.000;2022-09-03T00:30:45;17.50;41.20
13093;DHT22;6612;49.568;11.000;2022-09-03T00:33:18;17.50;41.10
13093;DHT22;6612;49.568;11.000;2022-09-03T00:35:49;17.40;42.10
13093;DHT22;6612;49.568;11.000;2022-09-03T00:38:18;17.40;41.40
13093;DHT22;6612;49.568;11.000;2022-09-03T00:41:01;17.30;41.20
13093;DHT22;6612;49.568;11.000;2022-09-03T00:43:45;17.30;42.10
13093;DHT22;6612;49.568;11.000;2022-09-03T00:46:22;17.30;42.10
13093;DHT22;6612;49.568;11.000;2022-09-03T00:49:08;17.20;41.90
13093;DHT22;6612;49.568;11.000;2022-09-03T00:51:46;17.20;40.80
13093;DHT22;6612;49.568;11.000;2022-09-03T00:54:21;17.10;41.80
13093;DHT22;6612;49.568;11.000;2022-09-03T00:56:57;17.10;42.00
13093;DHT22;6612;49.568;11.000;2022-09-03T00:59:33;17.00;42.20
13093;DHT22;6612;49.568;11.000;2022-09-03T01:02:06;17.00;42.30
13093;DHT22;6612;49.568;11.000;2022-09-03T01:04:49;16.90;42.10
13093;DHT22;6612;49.568;11.000;2022-09-03T01:07:27;16.90;42.50
13093;DHT22;6612;49.568;11.000;2022-09-03T01:10:06;16.90;42.40
13093;DHT22;6612;49.568;11.000;2022-09-03T01:12:45;16.80;42.50
13093;DHT22;6612;49.568;11.000;2022-09-03T01:15:20;16.80;42.80
13093;DHT22;6612;49.568;11.000;2022-09-03T01:17:59;16.80;42.60
13093;DHT22;6612;49.568;11.000;2022-09-03T01:20:42;16.70;42.80
13093;DHT22;6612;49.568;11.000;2022-09-03T01:23:36;16.70;43.00
13093;DHT22;6612;49.568;11.000;2022-09-03T01:26:15;16.70;43.40
13093;DHT22;6612;49.568;11.000;2022-09-03T01:28:56;16.60;43.00
13093;DHT22;6612;49.568;11.000;2022-09-03T01:31:31;16.60;43.10
13093;DHT22;6612;49.568;11.000;2022-09-03T01:34:14;16.60;43.10
13093;DHT22;6612;49.568;11.000;2022-09-03T01:36:50;16.60;43.30
13093;DHT22;6612;49.568;11.000;2022-09-03T01:39:23;16.50;43.30
13093;DHT22;6612;49.568;11.000;2022-09-03T01:42:00;16.50;43.30
13093;DHT22;6612;49.568;11.000;2022-09-03T01:47:42;16.50;43.70
13093;DHT22;6612;49.568;11.000;2022-09-03T01:50:21;16.40;43.50
13093;DHT22;6612;49.568;11.000;2022-09-03T01:52:53;16.40;43.50
13093;DHT22;6612;49.568;11.000;2022-09-03T01:55:30;16.40;43.60
13093;DHT22;6612;49.568;11.000;2022-09-03T01:58:01;16.40;44.00
13093;DHT22;6612;49.568;11.000;2022-09-03T02:00:33;16.30;43.60
13093;DHT22;6612;49.568;11.000;2022-09-03T02:03:05;16.30;43.80
13093;DHT22;6612;49.568;11.000;2022-09-03T02:05:33;16.30;44.00
13093;DHT22;6612;49.568;11.000;2022-09-03T02:08:02;16.30;43.80
13093;DHT22;6612;49.568;11.000;2022-09-03T02:10:32;16.20;43.90
13093;DHT22;6612;49.568;11.000;2022-09-03T02:13:04;16.20;44.00
13093;DHT22;6612;49.568;11.000;2022-09-03T02:15:34;16.20;44.10
13093;DHT22;6612;49.568;11.000;2022-09-03T02:18:05;16.20;44.30
13093;DHT22;6612;49.568;11.000;2022-09-03T02:20:34;16.20;44.30
13093;DHT22;6612;49.568;11.000;2022-09-03T02:23:01;16.10;44.10
13093;DHT22;6612;49.568;11.000;2022-09-03T02:25:31;16.10;44.20
13093;DHT22;6612;49.568;11.000;2022-09-03T02:27:59;16.10;44.40
13093;DHT22;6612;49.568;11.000;2022-09-03T02:30:27;16.00;44.30
13093;DHT22;6612;49.568;11.000;2022-09-03T02:32:55;16.10;44.50
13093;DHT22;6612;49.568;11.000;2022-09-03T02:35:22;16.00;44.60
13093;DHT22;6612;49.568;11.000;2022-09-03T02:37:49;16.00;44.60
13093;DHT22;6612;49.568;11.000;2022-09-03T02:40:17;16.00;44.70
13093;DHT22;6612;49.568;11.000;2022-09-03T02:42:44;16.00;44.70
13093;DHT22;6612;49.568;11.000;2022-09-03T02:45:19;15.90;44.80
13093;DHT22;6612;49.568;11.000;2022-09-03T02:47:52;15.90;45.30
13093;DHT22;6612;49.568;11.000;2022-09-03T02:50:21;15.90;45.00
13093;DHT22;6612;49.568;11.000;2022-09-03T02:52:48;15.90;45.00
13093;DHT22;6612;49.568;11.000;2022-09-03T02:55:16;15.90;45.00
13093;DHT22;6612;49.568;11.000;2022-09-03T02:57:44;15.80;45.00
13093;DHT22;6612;49.568;11.000;2022-09-03T03:00:12;15.80;45.10
13093;DHT22;6612;49.568;11.000;2022-09-03T03:02:39;15.80;45.30
13093;DHT22;6612;49.568;11.000;2022-09-03T03:05:09;15.70;45.20
13093;DHT22;6612;49.568;11.000;2022-09-03T03:07:42;15.70;45.40
13093;DHT22;6612;49.568;11.000;2022-09-03T03:10:09;15.70;45.50
13093;DHT22;6612;49.568;11.000;2022-09-03T03:12:37;15.70;45.40
13093;DHT22;6612;49.568;11.000;2022-09-03T03:15:05;15.70;45.60
13093;DHT22;6612;49.568;11.000;2022-09-03T03:17:32;15.70;45.70
13093;DHT22;6612;49.568;11.000;2022-09-03T03:19:59;15.60;45.60
13093;DHT22;6612;49.568;11.000;2022-09-03T03:22:26;15.60;45.60
13093;DHT22;6612;49.568;11.000;2022-09-03T03:24:54;15.60;45.80
13093;DHT22;6612;49.568;11.000;2022-09-03T03:27:22;15.60;46.00
13093;DHT22;6612;49.568;11.000;2022-09-03T03:29:49;15.50;45.80
13093;DHT22;6612;49.568;11.000;2022-09-03T03:32:16;15.50;45.90
13093;DHT22;6612;49.568;11.000;2022-09-03T03:34:43;15.50;46.70
13093;DHT22;6612;49.568;11.000;2022-09-03T03:37:10;15.50;46.10
13093;DHT22;6612;49.568;11.000;2022-09-03T03:39:37;15.50;46.10
13093;DHT22;6612;49.568;11.000;2022-09-03T03:42:06;15.50;46.20
13093;DHT22;6612;49.568;11.000;2022-09-03T03:44:32;15.40;46.30
13093;DHT22;6612;49.568;11.000;2022-09-03T03:46:59;15.40;46.30
13093;DHT22;6612;49.568;11.000;2022-09-03T03:49:26;15.40;45.60
13093;DHT22;6612;49.568;11.000;2022-09-03T03:51:53;15.40;46.30
13093;DHT22;6612;49.568;11.000;2022-09-03T03:54:20;15.40;46.40
13093;DHT22;6612;49.568;11.000;2022-09-03T03:56:47;15.40;46.40
13093;DHT22;6612;49.568;11.000;2022-09-03T03:59:15;15.30;46.40
13093;DHT22;6612;49.568;11.000;2022-09-03T04:01:42;15.30;45.90
13093;DHT22;6612;49.568;11.000;2022-09-03T04:04:09;15.30;46.60
13093;DHT22;6612;49.568;11.000;2022-09-03T04:06:36;15.30;46.70
13093;DHT22;6612;49.568;11.000;2022-09-03T04:09:03;15.30;46.80
13093;DHT22;6612;49.568;11.000;2022-09-03T04:13:57;15.20;46.20
13093;DHT22;6612;49.568;11.000;2022-09-03T04:16:26;15.20;46.80
13093;DHT22;6612;49.568;11.000;2022-09-03T04:18:54;15.20;47.10
13093;DHT22;6612;49.568;11.000;2022-09-03T04:21:23;15.10;47.00
13093;DHT22;6612;49.568;11.000;2022-09-03T04:23:51;15.10;47.10
13093;DHT22;6612;49.568;11.000;2022-09-03T04:26:19;15.10;47.20
13093;DHT22;6612;49.568;11.000;2022-09-03T04:28:47;15.10;47.30
13093;DHT22;6612;49.568;11.000;2022-09-03T04:31:15;15.10;47.30
13093;DHT22;6612;49.568;11.000;2022-09-03T04:33:43;15.10;47.50
13093;DHT22;6612;49.568;11.000;2022-09-03T04:36:11;15.10;47.60
13093;DHT22;6612;49.568;11.000;2022-09-03T04:38:41;15.10;47.70
13093;DHT22;6612;49.568;11.000;2022-09-03T04:41:09;15.10;47.80
13093;DHT22;6612;49.568;11.000;2022-09-03T04:43:37;15.10;47.80
13093;DHT22;6612;49.568;11.000;2022-09-03T04:46:05;15.10;47.90
13093;DHT22;6612;49.568;11.000;2022-09-03T04:48:34;15.10;48.00
13093;DHT22;6612;49.568;11.000;2022-09-03T04:51:05;15.10;48.10
13093;DHT22;6612;49.568;11.000;2022-09-03T04:53:33;15.10;48.30
13093;DHT22;6612;49.568;11.000;2022-09-03T04:56:00;15.10;48.20
13093;DHT22;6612;49.568;11.000;2022-09-03T04:58:27;15.20;48.40
13093;DHT22;6612;49.568;11.000;2022-09-03T05:00:54;15.20;48.50
13093;DHT22;6612;49.568;11.000;2022-09-03T05:03:22;15.20;48.50
13093;DHT22;6612;49.568;11.000;2022-09-03T05:05:53;15.30;48.70
13093;DHT22;6612;49.568;11.000;2022-09-03T05:08:21;15.40;49.20
13093;DHT22;6612;49.568;11.000;2022-09-03T05:10:48;15.40;48.90
13093;DHT22;6612;49.568;11.000;2022-09-03T05:13:15;15.50;48.90
13093;DHT22;6612;49.568;11.000;2022-09-03T05:15:42;15.60;48.90
13093;DHT22;6612;49.568;11.000;2022-09-03T05:18:10;15.70;49.20
13093;DHT22;6612;49.568;11.000;2022-09-03T05:20:37;15.90;49.60
13093;DHT22;6612;49.568;11.000;2022-09-03T05:23:04;16.00;49.70
13093;DHT22;6612;49.568;11.000;2022-09-03T05:25:33;16.10;49.70
13093;DHT22;6612;49.568;11.000;2022-09-03T05:28:02;16.30;49.80
13093;DHT22;6612;49.568;11.000;2022-09-03T05:30:29;16.40;49.60
13093;DHT22;6612;49.568;11.000;2022-09-03T05:32:56;16.50;49.40
13093;DHT22;6612;49.568;11.000;2022-09-03T05:35:23;16.60;49.40
13093;DHT22;6612;49.568;11.000;2022-09-03T05:37:53;16.80;49.70
13093;DHT22;6612;49.568;11.000;2022-09-03T05:40:20;17.00;50.80
13093;DHT22;6612;49.568;11.000;2022-09-03T05:42:54;17.10;49.90
13093;DHT22;6612;49.568;11.000;2022-09-03T05:45:22;17.30;50.20
13093;DHT22;6612;49.568;11.000;2022-09-03T05:47:49;17.50;49.90
13093;DHT22;6612;49.568;11.000;2022-09-03T05:50:16;17.70;49.60
13093;DHT22;6612;49.568;11.000;2022-09-03T05:52:43;17.80;49.40
13093;DHT22;6612;49.568;11.000;2022-09-03T05:55:10;18.00;49.60
13093;DHT22;6612;49.568;11.000;2022-09-03T05:57:37;18.10;49.60
13093;DHT22;6612;49.568;11.000;2022-09-03T06:00:06;18.30;49.70
13093;DHT22;6612;49.568;11.000;2022-09-03T06:02:34;18.60;50.00
13093;DHT22;6612;49.568;11.000;2022-09-03T06:05:01;18.90;51.00
13093;DHT22;6612;49.568;11.000;2022-09-03T06:07:28;19.30;50.50
13093;DHT22;6612;49.568;11.000;2022-09-03T06:09:54;19.60;50.30
13093;DHT22;6612;49.568;11.000;2022-09-03T06:12:21;20.00;49.70
13093;DHT22;6612;49.568;11.000;2022-09-03T06:14:48;20.30;49.10
13093;DHT22;6612;49.568;11.000;2022-09-03T06:17:17;20.50;48.00
13093;DHT22;6612;49.568;11.000;2022-09-03T06:19:44;20.80;48.00
13093;DHT22;6612;49.568;11.000;2022-09-03T06:22:11;21.20;48.60
13093;DHT22;6612;49.568;11.000;2022-09-03T06:24:38;21.50;48.10
13093;DHT22;6612;49.568;11.000;2022-09-03T06:27:04;22.00;48.00
13093;DHT22;6612;49.568;11.000;2022-09-03T06:29:32;22.50;48.00
13093;DHT22;6612;49.568;11.000;2022-09-03T06:32:00;23.00;47.40
13093;DHT22;6612;49.568;11.000;2022-09-03T06:34:30;23.60;46.50
13093;DHT22;6612;49.568;11.000;2022-09-03T06:36:57;24.00;45.30
13093;DHT22;6612;49.568;11.000;2022-09-03T06:39:24;24.40;44.80
13093;DHT22;6612;49.568;11.000;2022-09-03T06:41:51;24.80;43.90
13093;DHT22;6612;49.568;11.000;2022-09-03T06:44:19;25.00;42.20
13093;DHT22;6612;49.568;11.000;2022-09-03T06:46:46;25.10;42.00
13093;DHT22;6612;49.568;11.000;2022-09-03T06:49:15;25.10;40.50
13093;DHT22;6612;49.568;11.000;2022-09-03T06:51:43;24.80;39.50
13093;DHT22;6612;49.568;11.000;2022-09-03T06:54:11;24.80;39.50
13093;DHT22;6612;49.568;11.000;2022-09-03T06:56:39;24.60;39.40
13093;DHT22;6612;49.568;11.000;2022-09-03T06:59:08;24.50;39.60
13093;DHT22;6612;49.568;11.000;2022-09-03T07:01:36;24.60;40.10
13093;DHT22;6612;49.568;11.000;2022-09-03T07:04:06;24.60;40.30
13093;DHT22;6612;49.568;11.000;2022-09-03T07:06:34;24.70;39.90
13093;DHT22;6612;49.568;11.000;2022-09-03T07:09:04;24.70;39.40
13093;DHT22;6612;49.568;11.000;2022-09-03T07:11:31;24.70;39.50
13093;DHT22;6612;49.568;11.000;2022-09-03T07:14:01;24.50;38.60
13093;DHT22;6612;49.568;11.000;2022-09-03T07:16:29;24.40;38.40
13093;DHT22;6612;49.568;11.000;2022-09-03T07:21:26;24.10;37.70
13093;DHT22;6612;49.568;11.000;2022-09-03T07:23:54;24.10;38.80
13093;DHT22;6612;49.568;11.000;2022-09-03T07:26:24;24.10;39.00
13093;DHT22;6612;49.568;11.000;2022-09-03T07:28:52;24.20;39.60
13093;DHT22;6612;49.568;11.000;2022-09-03T07:31:21;24.40;39.40
13093;DHT22;6612;49.568;11.000;2022-09-03T07:33:54;24.50;39.30
13093;DHT22;6612;49.568;11.000;2022-09-03T07:40:13;24.60;38.00
13093;DHT22;6612;49.568;11.000;2022-09-03T07:42:57;24.70;37.90
13093;DHT22;6612;49.568;11.000;2022-09-03T08:45:06;25.40;37.20
13093;DHT22;6612;49.568;11.000;2022-09-03T08:47:38;25.60;37.30
13093;DHT22;6612;49.568;11.000;2022-09-03T08:50:10;25.70;37.50
13093;DHT22;6612;49.568;11.000;2022-09-03T08:52:44;25.80;37.30
13093;DHT22;6612;49.568;11.000;2022-09-03T08:55:22;26.00;37.20
13093;DHT22;6612;49.568;11.000;2022-09-03T08:57:57;26.00;36.60
13093;DHT22;6612;49.568;11.000;2022-09-03T09:00:39;26.10;37.00
13093;DHT22;6612;49.568;11.000;2022-09-03T09:06:10;26.50;36.50
13093;DHT22;6612;49.568;11.000;2022-09-03T09:08:47;26.60;36.50
13093;DHT22;6612;49.568;11.000;2022-09-03T09:11:27;26.60;36.20
13093;DHT22;6612;49.568;11.000;2022-09-03T09:14:03;26.70;36.10
13093;DHT22;6612;49.568;11.000;2022-09-03T09:16:39;26.70;36.30
13093;DHT22;6612;49.568;11.000;2022-09-03T09:19:21;27.00;36.90
13093;DHT22;6612;49.568;11.000;2022-09-03T09:21:59;26.80;36.80
13093;DHT22;6612;49.568;11.000;2022-09-03T09:24:34;26.90;35.90
13093;DHT22;6612;49.568;11.000;2022-09-03T09:27:04;27.00;35.90
13093;DHT22;6612;49.568;11.000;2022-09-03T09:29:34;27.10;36.00
13093;DHT22;6612;49.568;11.000;2022-09-03T09:32:06;27.10;36.00
13093;DHT22;6612;49.568;11.000;2022-09-03T09:34:35;27.10;35.10
13093;DHT22;6612;49.568;11.000;2022-09-03T09:37:05;27.10;35.00
13093;DHT22;6612;49.568;11.000;2022-09-03T09:39:33;27.10;34.90
13093;DHT22;6612;49.568;11.000;2022-09-03T09:42:04;27.10;35.10
13093;DHT22;6612;49.568;11.000;2022-09-03T09:44:34;27.00;35.20
13093;DHT22;6612;49.568;11.000;2022-09-03T09:47:05;27.00;35.40
13093;DHT22;6612;49.568;11.000;2022-09-03T09:49:34;27.00;35.10
13093;DHT22;6612;49.568;11.000;2022-09-03T09:52:06;27.00;35.00
13093;DHT22;6612;49.568;11.000;2022-09-03T09:54:36;27.00;34.90
13093;DHT22;6612;49.568;11.000;2022-09-03T09:57:05;26.90;34.90
13093;DHT22;6612;49.568;11.000;2022-09-03T09:59:33;26.90;35.30
13093;DHT22;6612;49.568;11.000;2022-09-03T10:02:12;26.90;35.80
13093;DHT22;6612;49.568;11.000;2022-09-03T10:04:40;27.10;35.80
13093;DHT22;6612;49.568;11.000;2022-09-03T10:07:30;27.40;36.50
13093;DHT22;6612;49.568;11.000;2022-09-03T10:10:03;27.80;36.20
13093;DHT22;6612;49.568;11.000;2022-09-03T10:12:34;28.20;36.20
13093;DHT22;6612;49.568;11.000;2022-09-03T10:15:10;28.60;35.40
13093;DHT22;6612;49.568;11.000;2022-09-03T10:17:48;28.80;33.90
13093;DHT22;6612;49.568;11.000;2022-09-03T10:20:21;28.90;33.80
13093;DHT22;6612;49.568;11.000;2022-09-03T10:23:05;28.90;33.50
13093;DHT22;6612;49.568;11.000;2022-09-03T10:25:42;28.90;33.20
13093;DHT22;6612;49.568;11.000;2022-09-03T10:28:15;28.90;33.00
13093;DHT22;6612;49.568;11.000;2022-09-03T10:30:59;28.90;33.20
13093;DHT22;6612;49.568;11.000;2022-09-03T10:33:33;29.00;32.60
13093;DHT22;6612;49.568;11.000;2022-09-03T10:36:10;29.00;32.50
13093;DHT22;6612;49.568;11.000;2022-09-03T10:38:41;29.00;32.60
13093;DHT22;6612;49.568;11.000;2022-09-03T10:41:19;29.10;33.20
13093;DHT22;6612;49.568;11.000;2022-09-03T10:44:11;29.10;32.50
13093;DHT22;6612;49.568;11.000;2022-09-03T10:46:49;29.20;32.60
13093;DHT22;6612;49.568;11.000;2022-09-03T10:49:34;29.30;32.60
13093;DHT22;6612;49.568;11.000;2022-09-03T10:52:08;29.30;32.20
13093;DHT22;6612;49.568;11.000;2022-09-03T10:54:47;29.30;32.30
13093;DHT22;6612;49.568;11.000;2022-09-03T10:57:24;29.20;32.10
13093;DHT22;6612;49.568;11.000;2022-09-03T11:00:03;29.20;32.20
13093;DHT22;6612;49.568;11.000;2022-09-03T11:05:33;29.00;32.10
13093;DHT22;6612;49.568;11.000;2022-09-03T11:08:06;28.90;32.40
13093;DHT22;6612;49.568;11.000;2022-09-03T11:10:40;28.80;32.70
13093;DHT22;6612;49.568;11.000;2022-09-03T11:13:11;28.80;32.60
13093;DHT22;6612;49.568;11.000;2022-09-03T11:15:44;28.70;32.60
13093;DHT22;6612;49.568;11.000;2022-09-03T11:18:17;28.70;32.80
13093;DHT22;6612;49.568;11.000;2022-09-03T11:20:48;28.70;33.10
13093;DHT22;6612;49.568;11.000;2022-09-03T11:23:17;28.70;33.20
13093;DHT22;6612;49.568;11.000;2022-09-03T11:25:48;28.70;33.50
13093;DHT22;6612;49.568;11.000;2022-09-03T11:28:26;28.70;33.60
13093;DHT22;6612;49.568;11.000;2022-09-03T11:31:08;28.70;33.60
13093;DHT22;6612;49.568;11.000;2022-09-03T11:33:41;28.70;33.60
13093;DHT22;6612;49.568;11.000;2022-09-03T11:36:11;28.70;33.70
13093;DHT22;6612;49.568;11.000;2022-09-03T11:38:38;28.70;33.70
13093;DHT22;6612;49.568;11.000;2022-09-03T11:41:11;28.70;33.80
13093;DHT22;6612;49.568;11.000;2022-09-03T11:43:41;28.70;34.00
13093;DHT22;6612;49.568;11.000;2022-09-03T11:46:10;28.70;34.10
13093;DHT22;6612;49.568;11.000;2022-09-03T11:48:41;28.70;34.10
13093;DHT22;6612;49.568;11.000;2022-09-03T11:51:29;28.70;34.20
13093;DHT22;6612;49.568;11.000;2022-09-03T11:53:59;28.80;33.90
13093;DHT22;6612;49.568;11.000;2022-09-03T11:56:27;28.80;34.00
13093;DHT22;6612;49.568;11.000;2022-09-03T11:59:14;28.80;34.00
13093;DHT22;6612;49.568;11.000;2022-09-03T12:01:46;28.80;34.60
13093;DHT22;6612;49.568;11.000;2022-09-03T12:04:19;28.90;34.00
13093;DHT22;6612;49.568;11.000;2022-09-03T12:07:23;28.90;34.20
13093;DHT22;6612;49.568;11.000;2022-09-03T12:10:14;28.90;34.20
13093;DHT22;6612;49.568;11.000;2022-09-03T12:12:59;29.00;34.30
13093;DHT22;6612;49.568;11.000;2022-09-03T12:15:51;29.00;34.40
13093;DHT22;6612;49.568;11.000;2022-09-03T12:18:22;29.00;34.20
13093;DHT22;6612;49.568;11.000;2022-09-03T12:21:01;29.00;34.20
13093;DHT22;6612;49.568;11.000;2022-09-03T12:23:32;29.00;34.00
13093;DHT22;6612;49.568;11.000;2022-09-03T12:26:02;29.00;34.30
13093;DHT22;6612;49.568;11.000;2022-09-03T12:28:33;29.00;35.10
13093;DHT22;6612;49.568;11.000;2022-09-03T12:31:08;28.90;34.30
13093;DHT22;6612;49.568;11.000;2022-09-03T12:33:50;28.90;34.40
13093;DHT22;6612;49.568;11.000;2022-09-03T12:36:19;28.90;34.60
13093;DHT22;6612;49.568;11.000;2022-09-03T12:38:48;28.80;34.60
13093;DHT22;6612;49.568;11.000;2022-09-03T12:41:23;28.80;34.90
13093;DHT22;6612;49.568;11.000;2022-09-03T12:43:51;28.80;35.20
13093;DHT22;6612;49.568;11.000;2022-09-03T12:46:23;28.70;35.20
13093;DHT22;6612;49.568;11.000;2022-09-03T12:48:55;28.70;35.20
13093;DHT22;6612;49.568;11.000;2022-09-03T12:51:22;28.70;35.20
13093;DHT22;6612;49.568;11.000;2022-09-03T12:53:51;28.80;35.40
13093;DHT22;6612;49.568;11.000;2022-09-03T12:56:20;28.80;35.30
13093;DHT22;6612;49.568;11.000;2022-09-03T12:58:52;28.70;35.30
13093;DHT22;6612;49.568;11.000;2022-09-03T13:01:22;28.70;35.50
13093;DHT22;6612;49.568;11.000;2022-09-03T13:03:54;28.70;35.60
13093;DHT22;6612;49.568;11.000;2022-09-03T13:06:25;28.70;35.70
13093;DHT22;6612;49.568;11.000;2022-09-03T13:08:58;28.70;35.80
13093;DHT22;6612;49.568;11.000;2022-09-03T13:11:28;28.80;35.90
13093;DHT22;6612;49.568;11.000;2022-09-03T13:14:01;28.80;36.00
13093;DHT22;6612;49.568;11.000;2022-09-03T13:16:51;28.90;36.00
13093;DHT22;6612;49.568;11.000;2022-09-03T13:19:26;28.90;36.00
13093;DHT22;6612;49.568;11.000;2022-09-03T13:22:01;29.00;35.60
13093;DHT22;6612;49.568;11.000;2022-09-03T13:24:58;29.00;35.70
13093;DHT22;6612;49.568;11.000;2022-09-03T13:27:32;29.10;35.60
13093;DHT22;6612;49.568;11.000;2022-09-03T13:30:07;29.10;35.60
13093;DHT22;6612;49.568;11.000;2022-09-03T13:32:41;29.10;35.50
13093;DHT22;6612;49.568;11.000;2022-09-03T13:35:17;29.10;35.60
13093;DHT22;6612;49.568;11.000;2022-09-03T13:37:51;29.10;35.30
13093;DHT22;6612;49.568;11.000;2022-09-03T13:40:24;29.10;35.40
13093;DHT22;6612;49.568;11.000;2022-09-03T13:42:56;29.00;35.10
13093;DHT22;6612;49.568;11.000;2022-09-03T13:45:36;29.00;35.20
13093;DHT22;6612;49.568;11.000;2022-09-03T13:48:09;28.90;35.10
13093;DHT22;6612;49.568;11.000;2022-09-03T13:51:00;28.90;35.10
13093;DHT22;6612;49.568;11.000;2022-09-03T13:53:39;28.60;34.80
13093;DHT22;6612;49.568;11.000;2022-09-03T13:56:19;28.70;35.20
13093;DHT22;6612;49.568;11.000;2022-09-03T13:58:50;28.70;35.30
13093;DHT22;6612;49.568;11.000;2022-09-03T14:01:24;28.60;35.30
13093;DHT22;6612;49.568;11.000;2022-09-03T14:03:54;28.60;35.50
13093;DHT22;6612;49.568;11.000;2022-09-03T14:06:32;28.60;35.70
13093;DHT22;6612;49.568;11.000;2022-09-03T14:09:11;28.60;36.00
13093;DHT22;6612;49.568;11.000;2022-09-03T14:11:49;28.40;35.80
13093;DHT22;6612;49.568;11.000;2022-09-03T14:14:28;28.60;36.30
13093;DHT22;6612;49.568;11.000;2022-09-03T14:17:01;28.60;36.20
13093;DHT22;6612;49.568;11.000;2022-09-03T14:19:36;28.60;36.20
13093;DHT22;6612;49.568;11.000;2022-09-03T14:22:08;28.70;36.30
13093;DHT22;6612;49.568;11.000;2022-09-03T14:24:45;28.70;36.40
13093;DHT22;6612;49.568;11.000;2022-09-03T14:27:22;28.70;36.50
13093;DHT22;6612;49.568;11.000;2022-09-03T14:29:53;28.80;36.50
13093;DHT22;6612;49.568;11.000;2022-09-03T14:32:42;28.90;36.50
13093;DHT22;6612;49.568;11.000;2022-09-03T14:35:30;28.90;36.80
13093;DHT22;6612;49.568;11.000;2022-09-03T14:38:35;28.90;36.50
13093;DHT22;6612;49.568;11.000;2022-09-03T14:41:35;29.00;36.50
13093;DHT22;6612;49.568;11.000;2022-09-03T14:44:31;29.00;36.60
13093;DHT22;6612;49.568;11.000;2022-09-03T14:47:09;29.00;36.20
13093;DHT22;6612;49.568;11.000;2022-09-03T14:50:17;29.00;36.20
13093;DHT22;6612;49.568;11.000;2022-09-03T14:52:58;29.10;36.40
13093;DHT22;6612;49.568;11.000;2022-09-03T14:55:50;29.10;36.20
13093;DHT22;6612;49.568;11.000;2022-09-03T14:58:28;29.10;36.20
13093;DHT22;6612;49.568;11.000;2022-09-03T15:01:05;29.10;36.20
13093;DHT22;6612;49.568;11.000;2022-09-03T15:06:45;29.00;36.20
13093;DHT22;6612;49.568;11.000;2022-09-03T15:09:20;29.00;36.20
13093;DHT22;6612;49.568;11.000;2022-09-03T15:11:51;29.00;35.70
13093;DHT22;6612;49.568;11.000;2022-09-03T15:14:25;28.90;36.30
13093;DHT22;6612;49.568;11.000;2022-09-03T15:17:04;28.90;36.30
13093;DHT22;6612;49.568;11.000;2022-09-03T15:19:55;28.80;36.50
13093;DHT22;6612;49.568;11.000;2022-09-03T15:22:36;28.80;36.60
13093;DHT22;6612;49.568;11.000;2022-09-03T15:25:14;28.70;36.60
13093;DHT22;6612;49.568;11.000;2022-09-03T15:28:04;28.70;36.70
13093;DHT22;6612;49.568;11.000;2022-09-03T15:30:34;28.60;36.90
13093;DHT22;6612;49.568;11.000;2022-09-03T15:33:14;28.50;36.80
13093;DHT22;6612;49.568;11.000;2022-09-03T15:36:00;28.40;37.10
13093;DHT22;6612;49.568;11.000;2022-09-03T15:38:39;28.30;37.20
13093;DHT22;6612;49.568;11.000;2022-09-03T15:41:16;28.20;37.30
13093;DHT22;6612;49.568;11.000;2022-09-03T15:43:48;28.10;37.20
13093;DHT22;6612;49.568;11.000;2022-09-03T15:46:35;28.00;37.40
13093;DHT22;6612;49.568;11.000;2022-09-03T15:49:09;27.90;37.80
13093;DHT22;6612;49.568;11.000;2022-09-03T15:51:49;27.70;38.00
13093;DHT22;6612;49.568;11.000;2022-09-03T15:54:29;27.70;37.80
13093;DHT22;6612;49.568;11.000;2022-09-03T15:57:02;27.60;37.90
13093;DHT22;6612;49.568;11.000;2022-09-03T15:59:38;27.50;38.10
13093;DHT22;6612;49.568;11.000;2022-09-03T16:02:09;27.40;38.30
13093;DHT22;6612;49.568;11.000;2022-09-03T16:05:02;27.30;38.40
13093;DHT22;6612;49.568;11.000;2022-09-03T16:07:45;27.30;38.80
13093;DHT22;6612;49.568;11.000;2022-09-03T16:10:16;27.20;39.60
13093;DHT22;6612;49.568;11.000;2022-09-03T16:12:56;27.10;38.80
13093;DHT22;6612;49.568;11.000;2022-09-03T16:15:27;27.00;39.20
13093;DHT22;6612;49.568;11.000;2022-09-03T16:18:00;27.00;39.40
13093;DHT22;6612;49.568;11.000;2022-09-03T16:20:35;26.90;39.80
13093;DHT22;6612;49.568;11.000;2022-09-03T16:23:06;26.80;40.10
13093;DHT22;6612;49.568;11.000;2022-09-03T16:25:46;26.70;40.10
13093;DHT22;6612;49.568;11.000;2022-09-03T16:28:17;26.60;40.60
13093;DHT22;6612;49.568;11.000;2022-09-03T16:30:59;26.50;40.50
13093;DHT22;6612;49.568;11.000;2022-09-03T16:33:38;26.40;41.30
13093;DHT22;6612;49.568;11.000;2022-09-03T16:36:23;26.40;41.40
13093;DHT22;6612;49.568;11.000;2022-09-03T16:38:59;26.20;42.50
13093;DHT22;6612;49.568;11.000;2022-09-03T16:41:33;26.10;43.40
13093;DHT22;6612;49.568;11.000;2022-09-03T16:44:06;26.00;43.90
13093;DHT22;6612;49.568;11.000;2022-09-03T16:46:41;25.80;44.30
13093;DHT22;6612;49.568;11.000;2022-09-03T16:52:13;25.60;46.40
13093;DHT22;6612;49.568;11.000;2022-09-03T16:54:51;25.40;47.00
13093;DHT22;6612;49.568;11.000;2022-09-03T16:57:38;25.20;47.20
13093;DHT22;6612;49.568;11.000;2022-09-03T17:00:11;25.00;48.30
13093;DHT22;6612;49.568;11.000;2022-09-03T17:03:09;24.90;47.00
13093;DHT22;6612;49.568;11.000;2022-09-03T17:06:12;24.70;49.50
13093;DHT22;6612;49.568;11.000;2022-09-03T17:08:49;24.60;50.70
13093;DHT22;6612;49.568;11.000;2022-09-03T17:11:39;24.40;49.90
13093;DHT22;6612;49.568;11.000;2022-09-03T17:17:09;24.00;51.30
13093;DHT22;6612;49.568;11.000;2022-09-03T17:19:48;23.90;51.10
13093;DHT22;6612;49.568;11.000;2022-09-03T17:22:28;23.70;52.60
13093;DHT22;6612;49.568;11.000;2022-09-03T17:25:01;23.60;53.10
13093;DHT22;6612;49.568;11.000;2022-09-03T17:30:29;23.30;52.80
13093;DHT22;6612;49.568;11.000;2022-09-03T17:33:15;23.20;52.40
13093;DHT22;6612;49.568;11.000;2022-09-03T17:36:01;23.00;54.00
13093;DHT22;6612;49.568;11.000;2022-09-03T17:38:49;22.90;54.30